Time;durP1;ratioP1;P1;durP2;ratioP2;P2;SDS_P1;SDS_P2;PMS_P1;PMS_P2;Temp;Humidity;BMP_temperature;BMP_pressure;BME280_temperature;BME280_humidity;BME280_pressure;Samples;Min_cycle;Max_cycle;Signal;HPM_P1;HPM_P2
2023/12/21 00:00:50;;;;;;;7.70;3.30;;;;;;;4.69;86.31;98900.36;130484;1259;109264;-83
2023/12/21 00:04:16;;;;;;;8.00;3.20;;;;;;;4.75;86.49;98899.63;130469;1261;107589;-83
2023/12/21 00:07:21;;;;;;;10.70;3.80;;;;;;;4.78;86.25;98895.10;130379;1261;109356;-83
2023/12/21 00:10:27;;;;;;;6.80;3.30;;;;;;;4.79;86.16;98893.40;130460;1258;108534;-83
2023/12/21 00:13:32;;;;;;;8.50;3.60;;;;;;;4.79;86.21;98885.86;130549;1264;107696;-84
2023/12/21 00:16:38;;;;;;;7.60;3.50;;;;;;;4.80;86.21;98879.23;130567;1259;108668;-85
2023/12/21 00:19:43;;;;;;;8.70;3.40;;;;;;;4.78;86.09;98872.75;130495;1260;107784;-84
2023/12/21 00:22:49;;;;;;;9.10;2.90;;;;;;;4.76;86.05;98874.14;130450;1258;105643;-83
2023/12/21 00:25:54;;;;;;;8.50;3.20;;;;;;;4.77;86.07;98866.30;130569;1258;106401;-84
2023/12/21 00:29:00;;;;;;;7.60;2.60;;;;;;;4.82;86.08;98859.66;130362;1261;107545;-84
2023/12/21 00:32:06;;;;;;;8.20;3.10;;;;;;;4.86;85.74;98856.08;130460;1264;107356;-83
2023/12/21 00:35:12;;;;;;;5.70;3.10;;;;;;;4.88;85.56;98854.50;130420;1260;106708;-83
2023/12/21 00:38:18;;;;;;;8.90;3.60;;;;;;;4.87;85.58;98847.23;130347;1260;106690;-83
2023/12/21 00:41:23;;;;;;;10.10;3.90;;;;;;;4.86;85.32;98845.48;130527;1260;106815;-84
2023/12/21 00:44:29;;;;;;;8.00;3.50;;;;;;;4.84;85.19;98842.90;130472;1261;107344;-83
2023/12/21 00:47:34;;;;;;;10.40;4.00;;;;;;;4.82;85.50;98843.42;130477;1264;106658;-84
2023/12/21 00:50:40;;;;;;;7.90;3.70;;;;;;;4.79;85.39;98843.71;130435;1259;107460;-84
2023/12/21 00:53:45;;;;;;;8.80;3.10;;;;;;;4.75;85.09;98845.56;130404;1263;108546;-84
2023/12/21 00:56:51;;;;;;;6.80;2.80;;;;;;;4.72;85.44;98850.02;130429;1261;107568;-83
2023/12/21 00:59:56;;;;;;;8.00;3.80;;;;;;;4.74;85.17;98845.13;130399;1263;108494;-84
2023/12/21 01:03:02;;;;;;;8.90;3.40;;;;;;;4.78;85.34;98842.42;130443;1261;108670;-84
2023/12/21 01:06:08;;;;;;;8.50;3.30;;;;;;;4.84;85.13;98833.61;130380;1261;108763;-84
2023/12/21 01:09:13;;;;;;;7.80;3.10;;;;;;;4.84;85.12;98830.91;130410;1261;108575;-83
2023/12/21 01:12:19;;;;;;;7.50;3.60;;;;;;;4.84;84.87;98828.48;130404;1261;107517;-83
2023/12/21 01:15:24;;;;;;;7.70;3.30;;;;;;;4.81;85.01;98827.65;130537;1258;107716;-83
2023/12/21 01:18:30;;;;;;;9.50;3.60;;;;;;;4.78;84.92;98823.05;130415;1260;108695;-83
2023/12/21 01:21:37;;;;;;;6.90;3.40;;;;;;;4.74;84.97;98825.20;130385;1264;106301;-84
2023/12/21 01:24:43;;;;;;;9.20;3.00;;;;;;;4.68;85.05;98816.04;130425;1264;107720;-84
2023/12/21 01:27:48;;;;;;;9.10;2.70;;;;;;;4.64;85.00;98816.43;130440;1263;107695;-84
2023/12/21 01:30:54;;;;;;;7.40;2.70;;;;;;;4.62;85.02;98807.66;130435;1260;108783;-83
2023/12/21 01:34:01;;;;;;;6.60;3.10;;;;;;;4.61;85.09;98807.11;130409;1264;108716;-84
2023/12/21 01:37:06;;;;;;;7.10;2.80;;;;;;;4.62;85.16;98797.82;130423;1261;107683;-84
2023/12/21 01:40:13;;;;;;;7.80;3.20;;;;;;;4.64;85.06;98794.60;130438;1258;107773;-83
2023/12/21 01:43:19;;;;;;;8.60;3.00;;;;;;;4.65;84.88;98789.65;130434;1258;107095;-84
2023/12/21 01:46:25;;;;;;;8.20;3.00;;;;;;;4.60;84.69;98784.27;130401;1263;108185;-83
2023/12/21 01:49:31;;;;;;;5.70;2.40;;;;;;;4.55;84.84;98778.44;130345;1261;108089;-85
2023/12/21 01:52:37;;;;;;;6.50;2.10;;;;;;;4.52;85.03;98777.84;130385;1263;106804;-84
2023/12/21 01:55:44;;;;;;;6.40;2.10;;;;;;;4.49;85.13;98770.39;130399;1258;107888;-84
2023/12/21 01:58:51;;;;;;;7.00;1.90;;;;;;;4.47;85.10;98764.23;130489;1260;106727;-84
2023/12/21 02:01:57;;;;;;;6.90;2.20;;;;;;;4.46;85.20;98758.91;130358;1264;108591;-84
2023/12/21 02:05:03;;;;;;;8.50;2.70;;;;;;;4.49;85.27;98761.64;130349;1261;106855;-84
2023/12/21 02:08:09;;;;;;;5.90;2.50;;;;;;;4.52;85.13;98756.17;130391;1261;107603;-84
2023/12/21 02:11:14;;;;;;;5.70;2.30;;;;;;;4.52;85.07;98749.34;130433;1259;108656;-84
2023/12/21 02:14:20;;;;;;;7.00;2.70;;;;;;;4.51;85.09;98748.65;130666;1264;108699;-83
2023/12/21 02:17:28;;;;;;;9.80;2.50;;;;;;;4.50;84.99;98754.27;130415;1259;108077;-84
2023/12/21 02:20:34;;;;;;;8.20;2.30;;;;;;;4.47;85.20;98757.05;130492;1263;107762;-83
2023/12/21 02:23:42;;;;;;;5.80;2.50;;;;;;;4.45;85.19;98754.27;130376;1259;106742;-84
2023/12/21 02:26:49;;;;;;;8.90;2.40;;;;;;;4.43;85.35;98750.81;130475;1264;107460;-85
2023/12/21 02:29:54;;;;;;;7.90;2.20;;;;;;;4.44;85.42;98746.91;130487;1264;106495;-85
2023/12/21 02:33:00;;;;;;;5.20;2.40;;;;;;;4.49;85.31;98739.09;130512;1264;107190;-84
2023/12/21 02:36:07;;;;;;;8.90;2.70;;;;;;;4.54;85.48;98733.12;130347;1264;108712;-85
2023/12/21 02:39:13;;;;;;;6.00;2.60;;;;;;;4.60;85.44;98723.67;130387;1262;107677;-84
2023/12/21 02:42:18;;;;;;;7.80;3.10;;;;;;;4.66;85.36;98713.44;130402;1263;106549;-85
2023/12/21 02:45:24;;;;;;;5.90;2.90;;;;;;;4.69;85.34;98710.33;130421;1262;107017;-85
2023/12/21 02:48:30;;;;;;;7.40;3.00;;;;;;;4.70;85.43;98696.14;130368;1261;107842;-85
2023/12/21 02:51:36;;;;;;;6.90;2.90;;;;;;;4.69;85.44;98690.02;130482;1261;108681;-85
2023/12/21 02:54:41;;;;;;;7.30;3.20;;;;;;;4.68;85.33;98682.54;130406;1261;107147;-85
2023/12/21 02:57:47;;;;;;;7.60;3.50;;;;;;;4.66;85.56;98671.27;130437;1263;107028;-85
2023/12/21 03:00:52;;;;;;;7.00;2.90;;;;;;;4.63;85.45;98664.77;130398;1258;108622;-85
2023/12/21 03:04:00;;;;;;;6.30;2.80;;;;;;;4.62;85.55;98656.42;130496;1261;107753;-86
2023/12/21 03:07:05;;;;;;;5.90;3.50;;;;;;;4.62;85.57;98647.77;130435;1260;106730;-85
2023/12/21 03:10:11;;;;;;;7.90;3.40;;;;;;;4.64;85.52;98645.08;130517;1258;106522;-85
2023/12/21 03:13:17;;;;;;;7.50;3.30;;;;;;;4.66;85.56;98643.69;130483;1258;108731;-85
2023/12/21 03:16:23;;;;;;;7.30;3.10;;;;;;;4.65;85.70;98631.30;130944;1258;106293;-85
2023/12/21 03:19:28;;;;;;;5.70;3.20;;;;;;;4.63;85.50;98626.93;130488;1259;107741;-85
2023/12/21 03:22:34;;;;;;;7.90;3.50;;;;;;;4.61;85.68;98618.30;130614;1260;107950;-85
2023/12/21 03:25:40;;;;;;;7.00;3.50;;;;;;;4.58;85.70;98608.27;130819;1263;106445;-85
2023/12/21 03:28:46;;;;;;;8.60;3.90;;;;;;;4.56;85.68;98604.73;130846;1263;109327;-85
2023/12/21 03:31:54;;;;;;;6.20;2.70;;;;;;;4.55;85.83;98595.84;131027;1264;108684;-85
2023/12/21 03:34:59;;;;;;;9.50;3.00;;;;;;;4.56;85.92;98593.77;130416;1262;107949;-85
2023/12/21 03:38:05;;;;;;;6.50;3.20;;;;;;;4.61;85.90;98594.68;130606;1260;108619;-86
2023/12/21 03:41:11;;;;;;;6.20;3.10;;;;;;;4.63;85.67;98582.52;130947;1259;108014;-88
2023/12/21 03:44:17;;;;;;;5.80;3.20;;;;;;;4.64;85.77;98577.11;130584;1265;105521;-87
2023/12/21 03:47:22;;;;;;;5.70;3.00;;;;;;;4.66;85.86;98580.09;130611;1259;106511;-86
2023/12/21 03:50:28;;;;;;;5.60;3.10;;;;;;;4.65;85.59;98574.70;130541;1258;108456;-84
2023/12/21 03:53:34;;;;;;;6.00;2.80;;;;;;;4.64;85.81;98568.52;130418;1264;106646;-84
2023/12/21 03:56:41;;;;;;;7.00;2.70;;;;;;;4.62;85.94;98563.40;130522;1258;106684;-84
2023/12/21 03:59:46;;;;;;;10.20;5.40;;;;;;;4.65;86.07;98558.52;130471;1263;107526;-84
2023/12/21 04:02:52;;;;;;;204.00;60.10;;;;;;;4.69;86.11;98551.73;130491;1263;107231;-83
2023/12/21 04:05:57;;;;;;;91.60;42.60;;;;;;;4.73;86.19;98542.61;130403;1260;107455;-84
2023/12/21 04:09:03;;;;;;;29.20;15.50;;;;;;;4.76;86.10;98539.81;130458;1262;107364;-84
2023/12/21 04:12:09;;;;;;;11.20;6.70;;;;;;;4.78;86.11;98535.44;130346;1264;106653;-84
2023/12/21 04:15:16;;;;;;;24.10;17.40;;;;;;;4.76;86.20;98530.27;130464;1263;107459;-84
2023/12/21 04:18:21;;;;;;;8.40;5.60;;;;;;;4.75;86.28;98523.03;130413;1262;109559;-84
2023/12/21 04:21:27;;;;;;;8.20;5.90;;;;;;;4.72;86.15;98515.23;130430;1261;107594;-84
2023/12/21 04:24:33;;;;;;;7.40;4.90;;;;;;;4.70;86.40;98513.79;130386;1261;106778;-84
2023/12/21 04:27:38;;;;;;;5.60;3.30;;;;;;;4.73;86.56;98504.90;130367;1264;106709;-84
2023/12/21 04:30:44;;;;;;;5.50;3.70;;;;;;;4.77;86.59;98491.79;130479;1264;108705;-84
2023/12/21 04:33:52;;;;;;;5.00;2.90;;;;;;;4.81;86.64;98480.05;130419;1263;107754;-84
2023/12/21 04:36:58;;;;;;;4.70;3.20;;;;;;;4.85;86.48;98476.82;130544;1258;108734;-84
2023/12/21 04:40:04;;;;;;;10.50;7.30;;;;;;;4.86;86.59;98472.20;130434;1263;108662;-84
2023/12/21 04:43:09;;;;;;;7.80;5.70;;;;;;;4.84;86.62;98464.31;130524;1263;108184;-84
2023/12/21 04:46:15;;;;;;;6.10;4.40;;;;;;;4.83;86.56;98456.11;130376;1262;106500;-84
2023/12/21 04:49:22;;;;;;;11.50;5.80;;;;;;;4.80;86.65;98451.48;130410;1264;108180;-84
2023/12/21 04:52:28;;;;;;;118.60;39.00;;;;;;;4.78;86.78;98440.93;130387;1263;106468;-84
2023/12/21 04:55:34;;;;;;;17.00;7.30;;;;;;;4.80;86.92;98434.10;130405;1264;107685;-84
2023/12/21 04:58:40;;;;;;;26.90;10.80;;;;;;;4.82;86.87;98422.38;130448;1258;106456;-84
2023/12/21 05:01:52;;;;;;;7.60;4.20;;;;;;;4.83;87.05;98408.88;130477;1259;108726;-84
2023/12/21 05:04:57;;;;;;;6.30;3.60;;;;;;;4.83;87.02;98403.76;130506;1260;108685;-84
2023/12/21 05:08:03;;;;;;;12.20;6.40;;;;;;;4.81;87.06;98401.87;130449;1259;108557;-84
2023/12/21 05:11:09;;;;;;;233.10;78.60;;;;;;;4.78;87.21;98402.79;130538;1264;108652;-84
2023/12/21 05:14:14;;;;;;;494.40;231.90;;;;;;;4.74;87.32;98403.34;130466;1264;107572;-84
2023/12/21 05:17:20;;;;;;;47.30;25.20;;;;;;;4.72;87.32;98395.94;130521;1263;108764;-84
2023/12/21 05:20:25;;;;;;;17.90;9.30;;;;;;;4.76;87.39;98391.23;130488;1265;108650;-84
2023/12/21 05:23:31;;;;;;;17.00;9.20;;;;;;;4.80;87.59;98381.27;130453;1262;108688;-84
2023/12/21 05:26:36;;;;;;;10.30;5.10;;;;;;;4.82;87.61;98371.45;130420;1264;108675;-84
2023/12/21 05:29:43;;;;;;;7.60;4.70;;;;;;;4.81;87.56;98364.38;130481;1265;108797;-84
2023/12/21 05:32:49;;;;;;;13.80;7.70;;;;;;;4.79;87.72;98353.48;130525;1258;108765;-84
2023/12/21 05:35:54;;;;;;;7.00;4.60;;;;;;;4.78;87.76;98349.02;130446;1272;107638;-84
2023/12/21 05:39:00;;;;;;;3.80;3.00;;;;;;;4.78;87.91;98345.98;130472;1263;108089;-84
2023/12/21 05:42:06;;;;;;;4.80;3.20;;;;;;;4.82;87.85;98341.36;130385;1264;106685;-84
2023/12/21 05:45:12;;;;;;;4.70;3.90;;;;;;;4.87;88.01;98336.97;130600;1261;106458;-84
2023/12/21 05:48:18;;;;;;;4.60;3.40;;;;;;;4.88;88.04;98337.70;130522;1260;107785;-84
2023/12/21 05:51:31;;;;;;;52.20;32.40;;;;;;;4.88;88.04;98329.31;130595;1263;107746;-87
2023/12/21 05:54:40;;;;;;;12.80;6.80;;;;;;;4.85;88.28;98319.23;130438;1261;110413;-85
2023/12/21 05:57:46;;;;;;;153.90;51.40;;;;;;;4.79;88.09;98319.09;130484;1264;106502;-85
2023/12/21 06:00:52;;;;;;;33.80;13.80;;;;;;;4.78;88.34;98320.98;130518;1261;108456;-85
2023/12/21 06:03:57;;;;;;;110.10;34.80;;;;;;;4.81;88.37;98309.28;130518;1264;107625;-85
2023/12/21 06:07:03;;;;;;;772.60;347.10;;;;;;;4.83;88.53;98305.65;130388;1262;107582;-85
2023/12/21 06:10:09;;;;;;;115.00;38.10;;;;;;;4.87;88.41;98304.88;130448;1258;107160;-85
2023/12/21 06:13:15;;;;;;;90.90;33.40;;;;;;;4.89;88.44;98300.41;130474;1263;108252;-84
2023/12/21 06:16:21;;;;;;;152.20;53.40;;;;;;;4.92;88.60;98289.56;130498;1264;105818;-85
2023/12/21 06:19:26;;;;;;;236.90;85.30;;;;;;;4.91;88.33;98293.54;130578;1264;107570;-85
2023/12/21 06:22:32;;;;;;;125.70;47.20;;;;;;;4.89;88.56;98279.59;130459;1263;107725;-86
2023/12/21 06:25:37;;;;;;;44.80;19.70;;;;;;;4.90;88.70;98277.41;130419;1260;108593;-86
2023/12/21 06:28:43;;;;;;;84.40;36.70;;;;;;;4.91;88.84;98273.38;130428;1264;107250;-85
2023/12/21 06:31:49;;;;;;;20.00;9.20;;;;;;;4.95;88.70;98273.55;130519;1259;106515;-84
2023/12/21 06:34:54;;;;;;;60.00;35.20;;;;;;;4.96;88.75;98271.30;130331;1263;106318;-85
2023/12/21 06:38:00;;;;;;;239.10;119.30;;;;;;;4.97;88.65;98272.27;130390;1260;107900;-87
2023/12/21 06:41:06;;;;;;;14.80;9.40;;;;;;;4.96;88.76;98262.31;130540;1263;108769;-85
2023/12/21 06:44:11;;;;;;;7.30;5.40;;;;;;;4.93;89.06;98258.39;130489;1264;108700;-86
2023/12/21 06:47:17;;;;;;;49.10;27.20;;;;;;;4.94;88.91;98254.96;130520;1259;107706;-86
2023/12/21 06:50:22;;;;;;;9.70;6.40;;;;;;;4.94;89.00;98251.32;130508;1264;108303;-86
2023/12/21 06:53:28;;;;;;;5.70;4.00;;;;;;;4.97;89.09;98241.52;130445;1263;108641;-88
2023/12/21 06:56:33;;;;;;;7.40;5.10;;;;;;;4.96;89.03;98229.45;130429;1258;106187;-85
2023/12/21 06:59:39;;;;;;;5.20;3.50;;;;;;;4.95;89.17;98225.77;130519;1264;106473;-86
2023/12/21 07:02:44;;;;;;;12.80;9.00;;;;;;;4.93;89.04;98224.99;130437;1258;108095;-86
2023/12/21 07:05:51;;;;;;;10.10;6.20;;;;;;;4.92;89.20;98221.92;130481;1264;109119;-86
2023/12/21 07:08:57;;;;;;;92.80;29.60;;;;;;;4.93;89.41;98221.78;130471;1263;108674;-86
2023/12/21 07:12:04;;;;;;;23.90;10.50;;;;;;;4.97;89.21;98220.69;130399;1264;107743;-86
2023/12/21 07:15:12;;;;;;;130.80;48.70;;;;;;;5.00;89.53;98210.41;130469;1264;107309;-86
2023/12/21 07:18:17;;;;;;;98.50;36.20;;;;;;;5.02;89.30;98211.50;130479;1264;106548;-86
2023/12/21 07:21:23;;;;;;;73.00;25.00;;;;;;;5.03;89.42;98208.92;130663;1264;106629;-86
2023/12/21 07:24:28;;;;;;;65.90;20.60;;;;;;;5.03;89.29;98195.70;130399;1263;108721;-86
2023/12/21 07:27:34;;;;;;;86.20;26.70;;;;;;;5.02;89.48;98192.89;130582;1259;106516;-86
2023/12/21 07:30:39;;;;;;;158.50;45.80;;;;;;;5.04;89.56;98190.04;130484;1258;107722;-86
2023/12/21 07:33:45;;;;;;;409.70;133.30;;;;;;;5.08;89.59;98189.84;130527;1264;107088;-86
2023/12/21 07:36:51;;;;;;;328.10;100.90;;;;;;;5.12;89.35;98189.38;130534;1263;108859;-85
2023/12/21 07:39:56;;;;;;;150.80;41.00;;;;;;;5.14;89.41;98178.95;130799;1263;106771;-86
2023/12/21 07:43:02;;;;;;;416.70;129.70;;;;;;;5.14;89.55;98177.00;130630;1260;107647;-85
2023/12/21 07:46:09;;;;;;;34.50;12.40;;;;;;;5.14;89.45;98168.08;130466;1262;106836;-85
2023/12/21 07:49:18;;;;;;;140.90;59.90;;;;;;;5.12;89.76;98160.70;130773;1271;107679;-87
2023/12/21 07:52:24;;;;;;;20.30;9.70;;;;;;;5.07;89.80;98159.98;131022;1264;107718;-87
2023/12/21 07:55:29;;;;;;;127.00;64.00;;;;;;;5.11;89.79;98153.05;130543;1263;106615;-85
2023/12/21 07:58:37;;;;;;;36.80;18.40;;;;;;;5.14;89.58;98142.34;130514;1264;108877;-85
2023/12/21 08:01:43;;;;;;;13.30;8.20;;;;;;;5.14;89.60;98141.68;130498;1259;106986;-86
2023/12/21 08:04:52;;;;;;;11.90;7.30;;;;;;;5.15;89.69;98137.67;130504;1274;108557;-88
2023/12/21 08:07:58;;;;;;;5.90;3.50;;;;;;;5.14;89.80;98125.29;130458;1262;107452;-88
2023/12/21 08:11:04;;;;;;;3.60;2.00;;;;;;;5.14;89.81;98116.06;130324;1261;106890;-86
2023/12/21 08:14:10;;;;;;;21.70;13.80;;;;;;;5.18;89.90;98114.37;130458;1263;106232;-87
2023/12/21 08:21:05;;;;;;;15.20;9.10;;;;;;;5.25;89.99;98095.73;130244;1266;108910;-85
2023/12/21 08:24:11;;;;;;;12.10;7.00;;;;;;;5.24;89.82;98098.75;130211;1261;106293;-86
2023/12/21 08:27:17;;;;;;;9.60;5.70;;;;;;;5.22;89.82;98090.09;130304;1267;106395;-86
2023/12/21 08:30:22;;;;;;;18.60;11.60;;;;;;;5.20;89.69;98082.10;130544;1261;108903;-88
2023/12/21 08:33:31;;;;;;;11.80;8.00;;;;;;;5.18;89.65;98082.16;130484;1264;106415;-87
2023/12/21 08:36:37;;;;;;;8.30;6.20;;;;;;;5.19;89.99;98069.45;130577;1262;107431;-90
2023/12/21 08:39:43;;;;;;;4.10;2.80;;;;;;;5.26;90.06;98060.02;130437;1264;108152;-89
2023/12/21 08:42:48;;;;;;;2.80;1.80;;;;;;;5.34;90.01;98057.05;130454;1261;107615;-89
2023/12/21 08:45:54;;;;;;;5.60;2.30;;;;;;;5.40;90.14;98049.84;130446;1264;107548;-91
2023/12/21 08:49:00;;;;;;;3.30;1.90;;;;;;;5.44;90.03;98047.63;130311;1262;107544;-89
2023/12/21 08:52:07;;;;;;;2.80;1.70;;;;;;;5.44;90.03;98042.80;130270;1264;106637;-87
2023/12/21 08:55:12;;;;;;;2.20;1.40;;;;;;;5.48;90.06;98037.66;130418;1262;107844;-88
2023/12/21 08:58:18;;;;;;;3.80;1.60;;;;;;;5.57;90.26;98026.15;130422;1264;108385;-88
2023/12/21 09:01:23;;;;;;;2.10;1.40;;;;;;;5.71;90.15;98026.39;130449;1264;107506;-88
2023/12/21 09:04:29;;;;;;;4.10;2.00;;;;;;;5.79;90.27;98013.80;130408;1264;107399;-89
2023/12/21 09:07:35;;;;;;;3.90;2.00;;;;;;;5.85;90.16;98005.39;130580;1264;106840;-89
2023/12/21 09:10:40;;;;;;;2.60;1.90;;;;;;;5.87;90.24;98001.88;130616;1262;106934;-90
2023/12/21 09:13:46;;;;;;;2.80;2.00;;;;;;;5.89;90.44;97995.35;130383;1265;106661;-89
2023/12/21 09:16:52;;;;;;;3.60;2.10;;;;;;;5.91;90.56;97980.89;130411;1264;107114;-90
2023/12/21 09:19:58;;;;;;;2.50;1.70;;;;;;;5.95;90.82;97978.14;130377;1264;105766;-88
2023/12/21 09:23:03;;;;;;;2.40;1.80;;;;;;;5.97;90.71;97967.61;130377;1261;108640;-89
2023/12/21 09:26:11;;;;;;;2.30;1.60;;;;;;;6.02;90.70;97958.56;130409;1265;107604;-88
2023/12/21 09:29:17;;;;;;;3.90;2.00;;;;;;;6.05;90.88;97946.73;130462;1272;107017;-86
2023/12/21 09:32:23;;;;;;;3.00;1.80;;;;;;;6.08;90.93;97939.30;130551;1264;107442;-90
2023/12/21 09:35:28;;;;;;;2.80;1.60;;;;;;;6.07;91.07;97934.30;130378;1261;107279;-92
2023/12/21 09:38:34;;;;;;;2.90;1.50;;;;;;;6.08;91.11;97923.46;130487;1264;107633;-89
2023/12/21 09:41:39;;;;;;;3.70;1.90;;;;;;;6.11;91.22;97916.29;130419;1266;107769;-87
2023/12/21 09:44:47;;;;;;;2.20;1.40;;;;;;;6.14;91.04;97915.69;130487;1264;107560;-87
2023/12/21 09:47:54;;;;;;;2.70;1.70;;;;;;;6.19;91.24;97903.09;130498;1267;106607;-88
2023/12/21 09:51:04;;;;;;;2.50;1.70;;;;;;;6.24;91.25;97892.40;130292;1262;108554;-86
2023/12/21 09:54:10;;;;;;;2.90;1.60;;;;;;;6.24;91.55;97889.71;130417;1274;108884;-89
2023/12/21 09:57:17;;;;;;;16.60;6.90;;;;;;;6.19;91.50;97892.13;130366;1265;108554;-89
2023/12/21 10:00:23;;;;;;;31.00;10.60;;;;;;;6.16;91.45;97889.86;130386;1262;107178;-89
2023/12/21 10:03:29;;;;;;;310.60;104.10;;;;;;;6.16;91.88;97875.92;130354;1270;106760;-89
2023/12/21 10:06:36;;;;;;;35.40;15.90;;;;;;;6.20;91.93;97866.77;130551;1264;107656;-90
2023/12/21 10:09:42;;;;;;;31.10;15.00;;;;;;;6.24;91.67;97857.77;130435;1266;107552;-89
2023/12/21 10:12:48;;;;;;;61.20;35.10;;;;;;;6.29;92.14;97852.66;130563;1264;107121;-90
2023/12/21 10:16:01;;;;;;;16.40;9.80;;;;;;;6.27;92.02;97849.10;130607;1265;107268;-88
2023/12/21 10:19:13;;;;;;;7.00;4.00;;;;;;;6.28;91.81;97836.27;130378;1266;107454;-89
2023/12/21 10:22:21;;;;;;;9.70;6.30;;;;;;;6.34;91.87;97825.78;130459;1263;107441;-89
2023/12/21 10:25:27;;;;;;;7.60;5.20;;;;;;;6.40;91.84;97815.51;130443;1266;107831;-89
2023/12/21 10:28:33;;;;;;;3.80;2.70;;;;;;;6.47;91.66;97806.66;130467;1270;107747;-90
2023/12/21 10:31:43;;;;;;;3.70;2.50;;;;;;;6.53;91.65;97793.44;130445;1261;107204;-90
2023/12/21 10:34:49;;;;;;;7.00;5.60;;;;;;;6.57;91.78;97787.08;130540;1261;107056;-88
2023/12/21 10:37:54;;;;;;;4.00;2.70;;;;;;;6.58;91.66;97780.77;130513;1262;108860;-88
2023/12/21 10:41:05;;;;;;;5.20;2.80;;;;;;;6.62;91.68;97775.52;130582;1261;106817;-88
2023/12/21 10:44:12;;;;;;;161.40;50.00;;;;;;;6.68;91.73;97762.73;130499;1261;106990;-90
2023/12/21 10:47:18;;;;;;;276.70;90.30;;;;;;;6.79;91.70;97749.98;130557;1265;107451;-90
2023/12/21 10:50:25;;;;;;;399.90;225.40;;;;;;;6.87;91.60;97743.16;130352;1264;108749;-89
2023/12/21 10:53:33;;;;;;;416.10;259.80;;;;;;;6.92;91.99;97737.03;130446;1264;108683;-87
2023/12/21 10:56:41;;;;;;;43.80;23.50;;;;;;;6.92;91.70;97723.74;130454;1264;107333;-88
2023/12/21 10:59:48;;;;;;;43.00;27.40;;;;;;;6.88;91.71;97715.80;130491;1264;107059;-88
2023/12/21 11:02:55;;;;;;;17.10;11.70;;;;;;;6.86;91.73;97705.06;130530;1267;107642;-90
2023/12/21 11:06:03;;;;;;;11.10;7.20;;;;;;;6.89;91.75;97695.75;130569;1266;108647;-89
2023/12/21 11:09:10;;;;;;;7.10;4.80;;;;;;;6.93;91.74;97690.31;130488;1265;107639;-89
2023/12/21 11:12:16;;;;;;;10.90;8.90;;;;;;;6.95;91.85;97683.27;130466;1274;108720;-89
2023/12/21 11:15:23;;;;;;;18.80;11.50;;;;;;;7.01;91.61;97675.11;130463;1265;108431;-89
2023/12/21 11:18:29;;;;;;;31.60;17.50;;;;;;;7.00;91.50;97666.50;130364;1264;107668;-87
2023/12/21 11:21:36;;;;;;;227.90;85.80;;;;;;;6.98;91.73;97657.20;130383;1264;107617;-88
2023/12/21 11:24:42;;;;;;;324.50;120.60;;;;;;;6.93;91.49;97653.08;130302;1264;107682;-89
2023/12/21 11:27:48;;;;;;;460.70;184.00;;;;;;;6.92;91.49;97647.37;130345;1266;107641;-88
2023/12/21 11:30:54;;;;;;;80.70;30.30;;;;;;;6.95;91.60;97636.48;130504;1262;109714;-87
2023/12/21 11:34:09;;;;;;;64.00;24.20;;;;;;;6.97;91.79;97631.16;130456;1260;108788;-89
2023/12/21 11:37:24;;;;;;;123.10;49.20;;;;;;;6.93;91.70;97612.45;130390;1262;107567;-88
2023/12/21 11:40:32;;;;;;;46.60;20.80;;;;;;;6.93;91.89;97608.79;130584;1274;106975;-88
2023/12/21 11:43:37;;;;;;;10.50;5.00;;;;;;;6.91;91.74;97596.42;130539;1265;108762;-88
2023/12/21 11:46:43;;;;;;;21.40;13.90;;;;;;;6.89;91.56;97585.23;130670;1261;108698;-86
2023/12/21 11:49:49;;;;;;;14.10;11.10;;;;;;;6.89;92.02;97578.59;130337;1264;108720;-86
2023/12/21 11:53:06;;;;;;;6.00;2.70;;;;;;;6.89;92.03;97576.91;130471;1264;107187;-87
2023/12/21 11:56:15;;;;;;;4.40;2.60;;;;;;;6.92;91.99;97566.33;130375;1274;107348;-86
2023/12/21 11:59:28;;;;;;;4.00;2.10;;;;;;;6.91;91.92;97558.98;130460;1263;108680;-86
2023/12/21 12:02:35;;;;;;;4.10;2.80;;;;;;;6.88;91.98;97552.29;130310;1266;108874;-86
2023/12/21 12:05:41;;;;;;;3.00;2.10;;;;;;;6.81;91.93;97540.79;130474;1266;106339;-87
2023/12/21 12:08:46;;;;;;;5.60;3.40;;;;;;;6.81;92.15;97527.57;130320;1267;107458;-88
2023/12/21 12:11:52;;;;;;;4.80;2.80;;;;;;;6.82;91.90;97518.48;130349;1273;108756;-86
2023/12/21 12:14:57;;;;;;;3.30;2.30;;;;;;;6.83;91.92;97505.73;130361;1264;107221;-86
2023/12/21 12:18:07;;;;;;;3.60;2.30;;;;;;;6.84;91.90;97497.73;130294;1267;108687;-86
2023/12/21 12:21:16;;;;;;;3.50;2.20;;;;;;;6.82;91.83;97486.31;130268;1261;108344;-88
2023/12/21 12:24:23;;;;;;;3.30;1.90;;;;;;;6.77;91.67;97483.39;130189;1264;107831;-87
2023/12/21 12:27:29;;;;;;;3.90;2.10;;;;;;;6.74;92.00;97474.46;130136;1264;107576;-88
2023/12/21 12:30:35;;;;;;;3.80;2.50;;;;;;;6.72;91.94;97464.45;130275;1268;107571;-87
2023/12/21 12:33:40;;;;;;;3.10;2.10;;;;;;;6.74;91.95;97456.67;130338;1264;107766;-87
2023/12/21 12:36:52;;;;;;;3.20;2.30;;;;;;;6.76;92.14;97444.58;130306;1260;107849;-87
2023/12/21 12:39:58;;;;;;;3.50;2.60;;;;;;;6.78;91.93;97430.85;130306;1264;108861;-86
2023/12/21 12:43:05;;;;;;;3.40;2.30;;;;;;;6.74;92.02;97426.91;130315;1266;107218;-86
2023/12/21 12:46:10;;;;;;;2.80;2.00;;;;;;;6.68;91.98;97418.30;130364;1264;108601;-86
2023/12/21 12:49:17;;;;;;;2.70;1.80;;;;;;;6.64;91.85;97409.92;130268;1264;108642;-87
2023/12/21 12:52:24;;;;;;;10.50;6.40;;;;;;;6.64;92.20;97405.07;130294;1264;108590;-88
2023/12/21 12:55:29;;;;;;;5.10;3.10;;;;;;;6.68;91.90;97394.11;130319;1272;108692;-87
2023/12/21 12:58:35;;;;;;;5.20;2.80;;;;;;;6.70;92.15;97386.10;130337;1264;108668;-87
2023/12/21 13:01:41;;;;;;;4.50;2.90;;;;;;;6.68;91.83;97373.66;130362;1264;108804;-87
2023/12/21 13:04:47;;;;;;;3.90;3.00;;;;;;;6.64;91.85;97366.17;130429;1261;107419;-87
2023/12/21 13:07:52;;;;;;;39.60;17.60;;;;;;;6.58;91.77;97352.34;130323;1267;107647;-86
2023/12/21 13:10:58;;;;;;;119.90;45.80;;;;;;;6.52;92.00;97349.48;130352;1260;108721;-87
2023/12/21 13:14:05;;;;;;;193.80;66.80;;;;;;;6.49;91.97;97338.59;130356;1262;107601;-86
2023/12/21 13:17:15;;;;;;;621.80;259.30;;;;;;;6.49;92.64;97329.95;130365;1264;107706;-85
2023/12/21 13:20:21;;;;;;;148.20;44.30;;;;;;;6.48;91.98;97321.70;130315;1261;107728;-86
2023/12/21 13:23:28;;;;;;;103.50;43.60;;;;;;;6.47;92.07;97319.52;130373;1264;108641;-88
2023/12/21 13:26:34;;;;;;;17.40;9.70;;;;;;;6.42;92.18;97309.63;130402;1263;108443;-86
2023/12/21 13:29:42;;;;;;;9.00;6.20;;;;;;;6.39;92.09;97296.48;130570;1260;107457;-87
2023/12/21 13:32:52;;;;;;;21.10;11.70;;;;;;;6.39;92.16;97288.32;130580;1261;107598;-87
2023/12/21 13:35:57;;;;;;;11.80;6.70;;;;;;;6.41;92.10;97276.70;130409;1271;107710;-87
2023/12/21 13:39:03;;;;;;;7.70;4.60;;;;;;;6.41;92.16;97269.44;130691;1263;107709;-87
2023/12/21 13:42:09;;;;;;;11.20;8.40;;;;;;;6.41;92.01;97260.60;130646;1261;108586;-86
2023/12/21 13:45:15;;;;;;;5.70;4.00;;;;;;;6.40;92.15;97250.13;130808;1260;107553;-86
2023/12/21 13:48:21;;;;;;;5.00;3.60;;;;;;;6.34;92.14;97242.42;130702;1275;106849;-87
2023/12/21 13:51:27;;;;;;;6.50;4.30;;;;;;;6.28;92.26;97228.19;130477;1265;107381;-87
2023/12/21 13:54:32;;;;;;;9.90;7.30;;;;;;;6.25;92.14;97225.33;130618;1260;107805;-86
2023/12/21 13:57:38;;;;;;;5.10;3.30;;;;;;;6.24;92.09;97205.65;130602;1260;106890;-86
2023/12/21 14:00:44;;;;;;;3.60;2.50;;;;;;;6.25;92.20;97199.42;130622;1263;107683;-86
2023/12/21 14:03:51;;;;;;;5.30;3.80;;;;;;;6.22;92.14;97191.64;130847;1263;106588;-85
2023/12/21 14:06:57;;;;;;;4.60;2.80;;;;;;;6.18;92.08;97179.73;130436;1261;107714;-86
2023/12/21 14:10:03;;;;;;;4.30;3.10;;;;;;;6.14;92.48;97174.02;130403;1261;106219;-84
2023/12/21 14:13:09;;;;;;;4.50;2.80;;;;;;;6.09;92.19;97162.69;130435;1261;108749;-85
2023/12/21 14:16:14;;;;;;;5.60;2.20;;;;;;;6.05;92.21;97151.73;130631;1265;109089;-89
2023/12/21 14:19:21;;;;;;;3.60;2.30;;;;;;;6.04;92.05;97143.09;130401;1266;107974;-88
2023/12/21 14:22:27;;;;;;;4.10;2.30;;;;;;;6.01;91.92;97133.80;130686;1260;107701;-88